createdAt,value
2024-05-09T00:02:23.703Z,4.77
2024-05-09T00:05:11.766Z,5.23
2024-05-09T00:08:00.420Z,5.37
2024-05-09T00:10:48.228Z,5.13
2024-05-09T00:13:36.018Z,5.10
2024-05-09T00:16:23.641Z,4.57
2024-05-09T00:19:11.565Z,4.93
2024-05-09T00:21:59.594Z,4.87
2024-05-09T00:24:47.244Z,5.00
2024-05-09T00:27:36.428Z,5.20
2024-05-09T00:30:31.466Z,5.33
2024-05-09T00:33:23.127Z,4.83
2024-05-09T00:36:11.159Z,4.63
2024-05-09T00:38:58.859Z,5.00
2024-05-09T00:41:46.512Z,4.50
2024-05-09T00:44:34.346Z,5.03
2024-05-09T00:47:22.891Z,5.27
2024-05-09T00:50:18.995Z,5.27
2024-05-09T00:53:17.553Z,5.13
2024-05-09T00:56:08.090Z,5.33
2024-05-09T00:58:56.310Z,5.40
2024-05-09T01:01:46.239Z,4.50
2024-05-09T01:04:34.122Z,4.30
2024-05-09T01:07:21.839Z,5.23
2024-05-09T01:10:14.065Z,4.87
2024-05-09T01:13:08.473Z,4.87
2024-05-09T01:15:58.523Z,5.83
2024-05-09T01:18:46.375Z,5.23
2024-05-09T01:21:34.942Z,4.90
2024-05-09T01:24:22.712Z,5.77
2024-05-09T01:27:10.725Z,5.57
2024-05-09T01:29:58.463Z,4.93
2024-05-09T01:32:46.268Z,5.77
2024-05-09T01:35:34.249Z,5.50
2024-05-09T01:38:22.091Z,5.20
2024-05-09T01:41:09.868Z,5.20
2024-05-09T01:43:57.528Z,5.67
2024-05-09T01:46:45.258Z,5.27
2024-05-09T01:49:40.266Z,4.37
2024-05-09T01:52:27.990Z,5.60
2024-05-09T01:55:15.758Z,5.00
2024-05-09T01:58:03.454Z,4.90
2024-05-09T02:00:51.262Z,4.77
2024-05-09T02:03:39.056Z,6.60
2024-05-09T02:06:26.868Z,4.77
2024-05-09T02:09:16.545Z,5.13
2024-05-09T02:12:04.658Z,5.43
2024-05-09T02:14:52.498Z,5.03
2024-05-09T02:17:40.450Z,4.87
2024-05-09T02:20:35.564Z,4.90
2024-05-09T02:23:24.539Z,4.87
2024-05-09T02:26:12.340Z,4.97
2024-05-09T02:29:00.330Z,5.23
2024-05-09T02:31:48.139Z,4.33
2024-05-09T02:34:35.960Z,5.63
2024-05-09T02:37:23.611Z,5.17
2024-05-09T02:40:14.681Z,4.73
2024-05-09T02:43:08.015Z,4.97
2024-05-09T02:45:56.282Z,4.50
2024-05-09T02:48:44.123Z,5.17
2024-05-09T02:51:31.974Z,5.03
2024-05-09T02:54:19.684Z,3.90
2024-05-09T02:57:07.387Z,5.33
2024-05-09T02:59:55.084Z,6.03
2024-05-09T03:02:46.003Z,4.63
2024-05-09T03:05:34.093Z,4.60
2024-05-09T03:08:22.070Z,4.70
2024-05-09T03:11:09.840Z,4.83
2024-05-09T03:13:57.839Z,4.80
2024-05-09T03:16:45.568Z,5.83
2024-05-09T03:19:36.925Z,5.17
2024-05-09T03:22:24.668Z,4.63
2024-05-09T03:25:12.321Z,5.00
2024-05-09T03:28:00.118Z,4.67
2024-05-09T03:30:47.767Z,5.13
2024-05-09T03:33:35.990Z,5.03
2024-05-09T03:36:23.825Z,5.00
2024-05-09T03:39:12.163Z,5.40
2024-05-09T03:42:00.100Z,5.40
2024-05-09T03:44:47.757Z,4.77
2024-05-09T03:47:35.869Z,4.97
2024-05-09T03:50:30.118Z,5.10
2024-05-09T03:53:23.090Z,4.77
2024-05-09T03:56:11.216Z,5.47
2024-05-09T03:58:58.902Z,5.33
2024-05-09T04:01:46.715Z,5.47
2024-05-09T04:04:34.612Z,5.77
2024-05-09T04:07:22.282Z,6.27
2024-05-09T04:10:17.109Z,5.63
2024-05-09T04:13:11.554Z,6.00
2024-05-09T04:15:59.177Z,6.30
2024-05-09T04:18:46.975Z,4.50
2024-05-09T04:21:34.746Z,5.63
2024-05-09T04:24:22.401Z,6.13
2024-05-09T04:27:10.256Z,5.50
2024-05-09T04:29:57.966Z,6.50
2024-05-09T04:32:48.037Z,5.70
2024-05-09T04:35:35.948Z,5.60
2024-05-09T04:38:23.952Z,5.23
2024-05-09T04:41:12.331Z,6.17
2024-05-09T04:44:00.035Z,6.53
2024-05-09T04:46:48.391Z,6.90
2024-05-09T04:49:36.134Z,6.40
2024-05-09T04:52:23.805Z,6.65
2024-05-09T04:55:11.481Z,5.63
2024-05-09T04:57:59.130Z,4.93
2024-05-09T05:00:50.202Z,4.25
2024-05-09T05:03:38.232Z,3.45
2024-05-09T05:06:26.132Z,3.75
2024-05-09T05:09:13.861Z,3.72
2024-05-09T05:12:02.994Z,4.07
2024-05-09T05:14:50.686Z,3.83
2024-05-09T05:17:38.611Z,4.47
2024-05-09T05:20:32.881Z,3.90
2024-05-09T05:23:23.502Z,3.95
2024-05-09T05:26:11.393Z,4.43
2024-05-09T05:28:59.178Z,3.88
2024-05-09T05:31:46.956Z,4.20
2024-05-09T05:34:35.546Z,3.65
2024-05-09T05:37:23.199Z,3.92
2024-05-09T05:40:14.645Z,3.70
2024-05-09T05:43:10.793Z,3.85
2024-05-09T05:45:58.637Z,4.40
2024-05-09T05:48:46.408Z,3.92
2024-05-09T05:51:34.110Z,4.43
2024-05-09T05:54:21.822Z,3.97
2024-05-09T05:57:09.497Z,3.90
2024-05-09T05:59:57.255Z,3.55
2024-05-09T06:02:45.173Z,3.97
2024-05-09T06:05:33.416Z,3.75
2024-05-09T06:08:21.300Z,3.55
2024-05-09T06:11:09.056Z,3.47
2024-05-09T06:13:56.784Z,3.53
2024-05-09T06:16:44.544Z,4.55
2024-05-09T06:19:32.339Z,4.40
2024-05-09T06:22:20.181Z,3.97
2024-05-09T06:25:08.016Z,3.53
2024-05-09T06:27:55.659Z,3.72
2024-05-09T06:30:43.617Z,3.63
2024-05-09T06:33:31.680Z,3.78
2024-05-09T06:36:20.007Z,3.45
2024-05-09T06:39:10.230Z,3.63
2024-05-09T06:41:57.906Z,2.80
2024-05-09T06:44:45.636Z,2.42
2024-05-09T06:47:33.449Z,3.08
2024-05-09T06:50:24.273Z,4.15
2024-05-09T06:53:16.978Z,3.40
2024-05-09T06:56:05.306Z,3.40
2024-05-09T06:58:54.648Z,3.13
2024-05-09T07:01:42.909Z,3.28
2024-05-09T07:04:30.929Z,2.97
2024-05-09T07:07:18.689Z,2.95
2024-05-09T07:10:09.953Z,3.50
2024-05-09T07:12:59.819Z,3.40
2024-05-09T07:15:47.486Z,3.72
2024-05-09T07:18:35.408Z,3.88
2024-05-09T07:21:23.373Z,3.88
2024-05-09T07:24:11.129Z,3.17
2024-05-09T07:26:59.088Z,3.65
2024-05-09T07:29:46.825Z,2.72
2024-05-09T07:32:34.728Z,3.70
2024-05-09T07:35:22.951Z,3.88
2024-05-09T07:38:10.822Z,3.10
2024-05-09T07:41:01.640Z,3.15
2024-05-09T07:43:49.376Z,2.63
2024-05-09T07:47:47.295Z,3.55
2024-05-09T07:51:32.396Z,3.05
2024-05-09T07:53:35.400Z,2.97
2024-05-09T07:56:00.252Z,3.35
2024-05-09T07:58:50.909Z,2.85
2024-05-09T08:01:38.913Z,3.45
2024-05-09T08:04:26.772Z,3.95
2024-05-09T08:07:14.751Z,2.80
2024-05-09T08:10:02.786Z,2.90
2024-05-09T08:12:51.126Z,2.95
2024-05-09T08:15:39.246Z,2.42
2024-05-09T08:18:27.253Z,2.92
2024-05-09T08:21:15.038Z,2.90
2024-05-09T08:24:02.968Z,3.05
2024-05-09T08:26:50.572Z,3.13
2024-05-09T08:29:38.335Z,2.83
2024-05-09T08:32:27.571Z,2.47
2024-05-09T08:35:15.665Z,3.00
2024-05-09T08:38:05.152Z,3.33
2024-05-09T08:41:03.867Z,2.60
2024-05-09T08:43:51.743Z,3.15
2024-05-09T08:46:51.354Z,3.10
2024-05-09T08:49:41.370Z,2.78
2024-05-09T08:52:29.435Z,3.00
2024-05-09T08:55:17.549Z,2.30
2024-05-09T08:58:07.660Z,2.63
2024-05-09T09:00:57.657Z,2.28
2024-05-09T09:03:46.365Z,2.00
2024-05-09T09:06:36.513Z,2.53
2024-05-09T09:09:27.000Z,2.25
2024-05-09T09:12:15.423Z,2.05
2024-05-09T09:15:03.535Z,2.33
2024-05-09T09:17:59.405Z,2.15
2024-05-09T09:20:47.431Z,2.90
2024-05-09T09:23:35.166Z,2.25
2024-05-09T09:26:23.640Z,2.30
2024-05-09T09:29:11.405Z,2.47
2024-05-09T09:32:04.182Z,2.03
2024-05-09T09:34:52.980Z,2.35
2024-05-09T09:37:40.709Z,1.95
2024-05-09T09:40:37.115Z,1.98
2024-05-09T09:43:29.386Z,1.67
2024-05-09T09:46:19.469Z,1.98
2024-05-09T09:49:09.283Z,1.98
2024-05-09T09:51:58.022Z,1.50
2024-05-09T09:54:46.324Z,1.25
2024-05-09T09:57:35.634Z,1.88
2024-05-09T10:00:32.046Z,1.42
2024-05-09T10:03:20.962Z,2.13
2024-05-09T10:06:10.747Z,2.42
2024-05-09T10:08:58.701Z,1.83
2024-05-09T10:11:51.845Z,1.75
2024-05-09T10:14:48.903Z,1.83
2024-05-09T10:17:36.759Z,2.20
2024-05-09T10:20:28.187Z,1.90
2024-05-09T10:23:29.667Z,1.70
2024-05-09T10:26:17.507Z,2.03
2024-05-09T10:29:19.361Z,2.25
2024-05-09T10:32:09.354Z,2.08
2024-05-09T10:35:09.125Z,1.67
2024-05-09T10:37:57.355Z,1.42
2024-05-09T10:40:49.042Z,1.73
2024-05-09T10:43:41.087Z,1.45
2024-05-09T10:46:28.862Z,1.50
2024-05-09T10:49:17.408Z,1.40
2024-05-09T10:52:05.575Z,1.90
2024-05-09T10:54:54.545Z,1.52
2024-05-09T10:57:43.403Z,2.28
2024-05-09T11:00:36.383Z,1.48
2024-05-09T11:03:25.948Z,1.45
2024-05-09T11:06:16.765Z,1.60
2024-05-09T11:09:06.376Z,1.42
2024-05-09T11:11:54.818Z,1.33
2024-05-09T11:14:54.448Z,1.45
2024-05-09T11:17:42.193Z,2.00
2024-05-09T11:20:38.158Z,1.65
2024-05-09T11:23:30.772Z,1.52
2024-05-09T11:26:21.659Z,1.42
2024-05-09T11:29:09.526Z,1.42
2024-05-09T11:31:57.251Z,1.70
2024-05-09T11:34:44.950Z,1.77
2024-05-09T11:37:36.057Z,1.50
2024-05-09T11:40:28.360Z,1.05
2024-05-09T11:43:21.598Z,1.73
2024-05-09T11:46:09.372Z,1.98
2024-05-09T11:48:57.232Z,2.50
2024-05-09T11:51:45.149Z,1.73
2024-05-09T11:54:32.855Z,2.10
2024-05-09T11:57:20.691Z,2.03
2024-05-09T12:00:11.915Z,2.20
2024-05-09T12:03:04.968Z,2.00
2024-05-09T12:05:53.484Z,2.08
2024-05-09T12:08:41.900Z,2.25
2024-05-09T12:11:29.648Z,1.92
2024-05-09T12:14:17.347Z,1.70
2024-05-09T12:17:05.872Z,1.75
2024-05-09T12:19:53.670Z,2.00
2024-05-09T12:22:41.419Z,1.60
2024-05-09T12:25:29.106Z,1.50
2024-05-09T12:28:17.014Z,2.15
2024-05-09T12:31:05.064Z,2.58
2024-05-09T12:33:54.829Z,1.73
2024-05-09T12:36:43.768Z,2.40
2024-05-09T12:39:31.658Z,1.70
2024-05-09T12:42:26.499Z,2.15
2024-05-09T12:45:15.903Z,2.00
2024-05-09T12:48:07.038Z,2.17
2024-05-09T12:50:57.748Z,2.00
2024-05-09T12:53:45.689Z,2.10
2024-05-09T12:56:33.762Z,2.55
2024-05-09T12:59:21.430Z,2.60
2024-05-09T13:02:09.455Z,2.10
2024-05-09T13:04:57.560Z,1.58
2024-05-09T13:07:47.158Z,2.30
2024-05-09T13:10:35.167Z,1.55
2024-05-09T13:13:23.167Z,1.80
2024-05-09T13:16:11.014Z,1.92
2024-05-09T13:18:58.770Z,1.92
2024-05-09T13:21:46.549Z,2.17
2024-05-09T13:24:34.263Z,2.40
2024-05-09T13:27:22.182Z,1.83
2024-05-09T13:30:17.611Z,2.03
2024-05-09T13:33:14.318Z,2.03
2024-05-09T13:36:02.371Z,1.50
2024-05-09T13:38:50.187Z,1.85
2024-05-09T13:41:37.904Z,2.00
2024-05-09T13:44:25.573Z,2.63
2024-05-09T13:47:15.235Z,2.25
2024-05-09T13:50:05.170Z,2.40
2024-05-09T13:52:52.981Z,2.17
2024-05-09T13:55:41.186Z,1.92
2024-05-09T13:58:28.947Z,2.47
2024-05-09T14:01:17.093Z,2.25
2024-05-09T14:04:05.446Z,1.80
2024-05-09T14:06:53.637Z,2.20
2024-05-09T14:09:41.356Z,2.10
2024-05-09T14:12:29.138Z,2.55
2024-05-09T14:15:16.898Z,2.08
2024-05-09T14:18:05.066Z,1.80
2024-05-09T14:20:53.041Z,2.33
2024-05-09T14:23:40.740Z,2.00
2024-05-09T14:26:28.717Z,2.22
2024-05-09T14:29:16.363Z,2.28
2024-05-09T14:32:04.499Z,1.90
2024-05-09T14:34:52.210Z,2.40
2024-05-09T14:37:40.019Z,2.20
2024-05-09T14:40:37.259Z,2.30
2024-05-09T14:43:29.536Z,1.95
2024-05-09T14:46:17.292Z,2.30
2024-05-09T14:49:06.052Z,2.05
2024-05-09T14:51:54.425Z,2.20
2024-05-09T14:54:42.110Z,2.42
2024-05-09T14:57:29.903Z,2.25
2024-05-09T15:00:26.006Z,1.52
2024-05-09T15:03:18.498Z,2.05
2024-05-09T15:06:06.660Z,2.05
2024-05-09T15:08:57.368Z,1.88
2024-05-09T15:11:46.355Z,1.95
2024-05-09T15:14:34.035Z,2.05
2024-05-09T15:17:21.935Z,1.73
2024-05-09T15:20:16.854Z,1.90
2024-05-09T15:23:06.997Z,1.42
2024-05-09T15:25:55.286Z,1.73
2024-05-09T15:28:43.101Z,2.10
2024-05-09T15:31:30.720Z,1.90
2024-05-09T15:34:18.453Z,1.77
2024-05-09T15:37:06.439Z,1.58
2024-05-09T15:39:54.779Z,1.75
2024-05-09T15:42:43.398Z,1.42
2024-05-09T15:45:31.159Z,1.35
2024-05-09T15:48:19.359Z,1.45
2024-05-09T15:51:07.220Z,1.40
2024-05-09T15:53:54.939Z,1.58
2024-05-09T15:56:47.414Z,1.83
2024-05-09T15:59:35.920Z,1.80
2024-05-09T16:02:23.852Z,1.77
2024-05-09T16:05:11.733Z,1.67
2024-05-09T16:07:59.748Z,1.67
2024-05-09T16:10:48.111Z,1.60
2024-05-09T16:13:36.077Z,1.67
2024-05-09T16:16:23.857Z,2.13
2024-05-09T16:19:11.890Z,1.85
2024-05-09T16:22:00.509Z,1.92
2024-05-09T16:24:49.009Z,1.65
2024-05-09T16:27:36.805Z,1.92
2024-05-09T16:30:31.679Z,2.05
2024-05-09T16:33:24.027Z,1.63
2024-05-09T16:36:11.831Z,1.65
2024-05-09T16:39:00.024Z,1.65
2024-05-09T16:41:47.685Z,1.85
2024-05-09T16:44:35.704Z,1.70
2024-05-09T16:47:23.863Z,1.50
2024-05-09T16:50:15.814Z,1.52
2024-05-09T16:53:07.324Z,2.05
2024-05-09T16:55:55.613Z,1.65
2024-05-09T16:58:44.072Z,1.60
2024-05-09T17:01:31.752Z,1.75
2024-05-09T17:04:19.589Z,1.48
2024-05-09T17:07:07.441Z,1.45
2024-05-09T17:09:55.187Z,1.63
2024-05-09T17:12:43.202Z,1.50
2024-05-09T17:15:32.034Z,1.40
2024-05-09T17:18:20.700Z,1.73
2024-05-09T17:21:08.427Z,1.58
2024-05-09T17:23:56.122Z,1.60
2024-05-09T17:26:43.960Z,1.60
2024-05-09T17:29:31.828Z,1.48
2024-05-09T17:32:19.610Z,1.83
2024-05-09T17:35:07.681Z,1.70
2024-05-09T17:37:55.525Z,1.45
2024-05-09T17:40:43.350Z,1.50
2024-05-09T17:43:34.405Z,1.20
2024-05-09T17:46:22.543Z,1.30
2024-05-09T17:49:10.399Z,1.50
2024-05-09T17:51:58.112Z,1.60
2024-05-09T17:54:45.872Z,2.25
2024-05-09T17:57:34.120Z,1.83
2024-05-09T18:00:32.445Z,1.67
2024-05-09T18:03:25.948Z,2.05
2024-05-09T18:06:13.948Z,1.45
2024-05-09T18:09:01.688Z,1.50
2024-05-09T18:11:49.588Z,1.70
2024-05-09T18:14:37.442Z,1.52
2024-05-09T18:17:26.261Z,1.67
2024-05-09T18:20:19.842Z,1.60
2024-05-09T18:23:18.687Z,1.38
2024-05-09T18:26:08.892Z,2.33
2024-05-09T18:28:56.692Z,1.95
2024-05-09T18:31:44.425Z,1.90
2024-05-09T18:34:32.174Z,1.80
2024-05-09T18:37:20.077Z,2.47
2024-05-09T18:40:12.202Z,2.60
2024-05-09T18:43:08.407Z,2.03
2024-05-09T18:45:57.004Z,1.92
2024-05-09T18:48:44.802Z,2.13
2024-05-09T18:51:32.754Z,2.03
2024-05-09T18:54:20.435Z,1.70
2024-05-09T18:57:08.335Z,1.70
2024-05-09T18:59:56.455Z,2.00
2024-05-09T19:02:44.382Z,2.13
2024-05-09T19:05:32.474Z,2.33
2024-05-09T19:08:20.519Z,2.05
2024-05-09T19:11:08.341Z,2.15
2024-05-09T19:13:56.127Z,2.53
2024-05-09T19:16:44.455Z,2.20
2024-05-09T19:19:32.352Z,2.40
2024-05-09T19:22:20.403Z,2.55
2024-05-09T19:25:08.454Z,2.20
2024-05-09T19:27:56.322Z,3.05
2024-05-09T19:30:44.071Z,2.42
2024-05-09T19:33:32.654Z,2.30
2024-05-09T19:36:20.583Z,2.13
2024-05-09T19:39:08.351Z,2.40
2024-05-09T19:41:56.004Z,2.85
2024-05-09T19:44:43.737Z,2.67
2024-05-09T19:47:31.473Z,2.65
2024-05-09T19:50:26.793Z,2.40
2024-05-09T19:53:23.467Z,2.75
2024-05-09T19:56:11.325Z,2.75
2024-05-09T19:58:59.014Z,2.10
2024-05-09T20:01:46.954Z,2.70
2024-05-09T20:04:34.984Z,2.47
2024-05-09T20:07:22.954Z,2.90
2024-05-09T20:10:16.736Z,2.58
2024-05-09T20:13:11.214Z,3.05
2024-05-09T20:16:01.617Z,3.03
2024-05-09T20:18:49.508Z,3.08
2024-05-09T20:21:43.612Z,3.07
2024-05-09T20:24:31.355Z,3.27
2024-05-09T20:27:19.103Z,3.00
2024-05-09T20:30:12.082Z,3.40
2024-05-09T20:33:04.948Z,3.40
2024-05-09T20:35:55.663Z,3.90
2024-05-09T20:38:45.573Z,3.47
2024-05-09T20:41:35.812Z,3.83
2024-05-09T20:44:24.244Z,3.40
2024-05-09T20:47:12.378Z,4.23
2024-05-09T20:50:00.016Z,3.47
2024-05-09T20:52:47.825Z,3.83
2024-05-09T20:55:35.507Z,3.37
2024-05-09T20:58:23.512Z,3.50
2024-05-09T21:01:12.927Z,3.53
2024-05-09T21:04:02.718Z,3.77
2024-05-09T21:06:50.535Z,3.93
2024-05-09T21:09:38.238Z,3.90
2024-05-09T21:12:25.989Z,3.73
2024-05-09T21:15:13.882Z,3.43
2024-05-09T21:18:01.750Z,3.23
2024-05-09T21:20:49.437Z,3.80
2024-05-09T21:23:40.618Z,3.67
2024-05-09T21:26:29.641Z,3.20
2024-05-09T21:29:17.360Z,3.43
2024-05-09T21:32:05.524Z,4.20
2024-05-09T21:34:53.242Z,3.20
2024-05-09T21:37:41.000Z,3.47
2024-05-09T21:40:34.250Z,3.00
2024-05-09T21:43:23.939Z,3.20
2024-05-09T21:46:11.976Z,3.30
2024-05-09T21:48:59.956Z,2.97
2024-05-09T21:51:50.114Z,3.70
2024-05-09T21:54:38.057Z,3.50
2024-05-09T21:57:25.706Z,3.50
2024-05-09T22:00:28.301Z,3.70
2024-05-09T22:03:22.826Z,3.73
2024-05-09T22:06:10.661Z,3.60
2024-05-09T22:08:58.336Z,3.43
2024-05-09T22:11:47.431Z,3.53
2024-05-09T22:14:35.870Z,3.23
2024-05-09T22:17:23.707Z,4.00
2024-05-09T22:20:18.119Z,3.50
2024-05-09T22:23:10.960Z,3.17
2024-05-09T22:25:58.645Z,3.40
2024-05-09T22:28:46.534Z,4.10
2024-05-09T22:31:34.260Z,3.27
2024-05-09T22:34:22.229Z,3.90
2024-05-09T22:37:10.170Z,4.23
2024-05-09T22:39:58.060Z,2.93
2024-05-09T22:42:45.775Z,4.07
2024-05-09T22:45:33.639Z,4.03
2024-05-09T22:48:21.593Z,3.67
2024-05-09T22:51:09.318Z,4.47
2024-05-09T22:53:57.040Z,3.37
2024-05-09T22:56:44.750Z,3.70
2024-05-09T22:59:32.518Z,4.00
2024-05-09T23:02:20.277Z,3.50
2024-05-09T23:05:08.210Z,3.87
2024-05-09T23:07:55.869Z,3.40
2024-05-09T23:10:43.670Z,3.67
2024-05-09T23:13:31.931Z,4.10
2024-05-09T23:16:19.674Z,3.03
2024-05-09T23:19:09.889Z,3.23
2024-05-09T23:21:57.680Z,3.40
2024-05-09T23:24:45.348Z,3.20
2024-05-09T23:27:33.065Z,3.53
2024-05-09T23:30:29.246Z,3.07
2024-05-09T23:33:24.625Z,3.80
2024-05-09T23:36:12.537Z,4.03
2024-05-09T23:39:00.789Z,3.13
2024-05-09T23:41:48.415Z,3.93
2024-05-09T23:44:36.134Z,3.53
2024-05-09T23:47:24.216Z,3.33
2024-05-09T23:50:16.969Z,4.03
2024-05-09T23:53:11.655Z,4.23
2024-05-09T23:55:59.423Z,4.03
2024-05-09T23:58:48.706Z,3.53
